createdAt,value
2018-05-03T00:05:09.356Z,7.3
2018-05-03T00:11:04.384Z,5.76
2018-05-03T00:16:59.335Z,6.99
2018-05-03T00:22:54.332Z,6.83
2018-05-03T00:28:49.381Z,6.11
2018-05-03T00:34:44.402Z,7.57
2018-05-03T00:40:39.361Z,6.48
2018-05-03T00:46:34.338Z,6.24
2018-05-03T00:52:29.364Z,6.47
2018-05-03T00:58:24.385Z,6.47
2018-05-03T01:04:19.377Z,6.68
2018-05-03T01:10:14.374Z,5
2018-05-03T01:16:09.371Z,6.52
2018-05-03T01:22:04.393Z,6.77
2018-05-03T01:27:59.402Z,6.07
2018-05-03T01:33:54.366Z,6.3
2018-05-03T01:39:49.446Z,5.51
2018-05-03T01:45:44.390Z,4.67
2018-05-03T01:51:39.455Z,6.63
2018-05-03T01:57:34.429Z,6.78
2018-05-03T02:03:29.393Z,5.92
2018-05-03T02:09:24.411Z,6.51
2018-05-03T02:15:19.409Z,6.27
2018-05-03T02:21:14.394Z,6.43
2018-05-03T02:27:09.432Z,6.02
2018-05-03T02:33:04.560Z,6.01
2018-05-03T02:38:59.474Z,7.27
2018-05-03T02:44:54.421Z,7.2
2018-05-03T02:50:49.435Z,7.17
2018-05-03T02:56:44.451Z,6.57
2018-05-03T03:02:39.441Z,7.07
2018-05-03T03:08:34.478Z,7.22
2018-05-03T03:14:29.478Z,7.05
2018-05-03T03:20:24.457Z,5.67
2018-05-03T03:26:19.468Z,6.7
2018-05-03T03:32:14.474Z,6.77
2018-05-03T03:38:09.462Z,6.82
2018-05-03T03:44:04.482Z,7.05
2018-05-03T03:49:59.478Z,6.3
2018-05-03T03:55:54.560Z,6.36
2018-05-03T04:01:49.459Z,5.95
2018-05-03T04:07:44.520Z,5.6
2018-05-03T04:13:39.480Z,5.46
2018-05-03T04:19:34.508Z,6.56
2018-05-03T04:25:29.516Z,6.22
2018-05-03T04:31:24.533Z,6.01
2018-05-03T04:37:19.521Z,6.05
2018-05-03T04:43:14.554Z,6.74
2018-05-03T04:49:09.539Z,6.5
2018-05-03T04:55:04.508Z,5.96
2018-05-03T05:00:59.546Z,5.54
2018-05-03T05:06:54.632Z,6.66
2018-05-03T05:12:49.543Z,6.84
2018-05-03T05:18:44.534Z,6.67
2018-05-03T05:24:39.570Z,7.03
2018-05-03T05:30:34.571Z,7.89
2018-05-03T05:36:29.558Z,7.41
2018-05-03T05:42:24.549Z,7.47
2018-05-03T05:48:19.531Z,7.16
2018-05-03T05:54:14.585Z,8.14
2018-05-03T06:00:09.551Z,8.19
2018-05-03T06:06:04.583Z,7.22
2018-05-03T06:11:59.570Z,8.19
2018-05-03T06:17:54.613Z,6.99
2018-05-03T06:23:49.582Z,5.44
2018-05-03T06:29:44.578Z,5.59
2018-05-03T06:35:39.603Z,4.71
2018-05-03T06:41:34.575Z,3.86
2018-05-03T06:47:29.579Z,4.35
2018-05-03T06:53:24.618Z,3.19
2018-05-03T06:59:19.600Z,4
2018-05-03T07:05:14.662Z,4.44
2018-05-03T07:11:09.660Z,3.66
2018-05-03T07:17:04.622Z,7.2
2018-05-03T07:22:59.658Z,3.69
2018-05-03T07:28:54.644Z,4.61
2018-05-03T07:34:49.618Z,4.03
2018-05-03T07:40:44.704Z,3.83
2018-05-03T07:46:39.641Z,4.57
2018-05-03T07:52:34.628Z,4.27
2018-05-03T07:58:29.642Z,4.5
2018-05-03T08:04:24.641Z,4.52
2018-05-03T08:10:19.697Z,5.35
2018-05-03T08:16:14.665Z,5.44
2018-05-03T08:22:09.685Z,5.21
2018-05-03T08:28:04.677Z,5.96
2018-05-03T08:33:59.675Z,5.57
2018-05-03T08:39:54.663Z,5.37
2018-05-03T08:45:49.695Z,6.94
2018-05-03T08:51:44.692Z,5.13
2018-05-03T08:57:39.693Z,5.44
2018-05-03T09:03:34.693Z,4.78
2018-05-03T09:09:29.691Z,5.25
2018-05-03T09:15:24.724Z,5.49
2018-05-03T09:21:19.700Z,4.18
2018-05-03T09:27:14.706Z,6.93
2018-05-03T09:33:09.732Z,5.57
2018-05-03T09:39:04.740Z,4.34
2018-05-03T09:44:59.727Z,4.45
2018-05-03T09:50:54.726Z,4.55
2018-05-03T09:56:49.712Z,4.21
2018-05-03T10:02:44.775Z,4.75
2018-05-03T10:08:39.711Z,3.91
2018-05-03T10:14:34.813Z,3.71
2018-05-03T10:20:29.746Z,4.66
2018-05-03T10:26:24.754Z,3.73
2018-05-03T10:32:19.729Z,3.14
2018-05-03T10:38:14.761Z,3.02
2018-05-03T10:44:09.826Z,3.38
2018-05-03T10:50:04.787Z,3.3
2018-05-03T10:55:59.778Z,3.24
2018-05-03T11:01:54.765Z,2.91
2018-05-03T11:07:49.787Z,4.07
2018-05-03T11:13:44.835Z,4.01
2018-05-03T11:19:39.866Z,3.73
2018-05-03T11:25:34.795Z,3.66
2018-05-03T11:31:29.909Z,3.98
2018-05-03T11:37:24.820Z,4.04
2018-05-03T11:43:19.800Z,4
2018-05-03T11:49:14.796Z,3.61
2018-05-03T11:55:09.783Z,3.83
2018-05-03T12:01:04.840Z,4.61
2018-05-03T12:06:59.799Z,3.88
2018-05-03T12:12:54.846Z,4.62
2018-05-03T12:18:49.837Z,5.91
2018-05-03T12:24:44.837Z,4.5
2018-05-03T12:30:39.840Z,5.36
2018-05-03T12:36:34.845Z,4.7
2018-05-03T12:42:29.874Z,4.69
2018-05-03T12:48:24.871Z,6.09
2018-05-03T12:54:19.877Z,5.14
2018-05-03T13:00:14.858Z,5.44
2018-05-03T13:06:09.905Z,5.7
2018-05-03T13:12:04.882Z,6.53
2018-05-03T13:17:59.858Z,4.85
2018-05-03T13:23:54.872Z,5.62
2018-05-03T13:29:49.850Z,5.5
2018-05-03T13:35:44.875Z,5.73
2018-05-03T13:41:39.896Z,5.92
2018-05-03T13:47:34.941Z,6.03
2018-05-03T13:53:29.987Z,6.15
2018-05-03T13:59:24.937Z,5.78
2018-05-03T14:05:19.960Z,5.66
2018-05-03T14:11:14.879Z,6.53
2018-05-03T14:17:09.920Z,5.32
2018-05-03T14:23:04.903Z,6.42
2018-05-03T14:28:59.931Z,7.78
2018-05-03T14:34:54.951Z,6.69
2018-05-03T14:40:49.936Z,7.5
2018-05-03T14:46:44.995Z,9.64
2018-05-03T14:52:40.632Z,9.62
2018-05-03T14:58:34.950Z,6.48
2018-05-03T15:04:29.992Z,5.58
2018-05-03T15:10:25.000Z,6.25
2018-05-03T15:16:20.061Z,7.02
2018-05-03T15:22:14.954Z,3.65
2018-05-03T15:28:09.984Z,3.15
2018-05-03T15:34:04.959Z,1.74
2018-05-03T15:40:00.011Z,1.83
2018-05-03T15:45:55.011Z,2.32
2018-05-03T15:51:50.081Z,2.33
2018-05-03T15:57:44.964Z,2.81
2018-05-03T16:03:39.988Z,4.02
2018-05-03T16:09:34.993Z,4.8
2018-05-03T16:15:29.981Z,3.46
2018-05-03T16:21:25.006Z,3.16
2018-05-03T16:27:20.027Z,1.74
2018-05-03T16:33:15.016Z,2.08
2018-05-03T16:39:10.016Z,2.15
2018-05-03T16:45:04.985Z,1.96
2018-05-03T16:51:00.055Z,2
2018-05-03T16:56:55.046Z,1.97
2018-05-03T17:02:50.058Z,1.75
2018-05-03T17:08:45.024Z,1.96
2018-05-03T17:14:40.013Z,2.37
2018-05-03T17:20:35.101Z,2.89
2018-05-03T17:26:30.068Z,2.39
2018-05-03T17:32:25.104Z,3.63
2018-05-03T17:38:20.057Z,3.68
2018-05-03T17:44:15.149Z,3.82
2018-05-03T17:50:10.116Z,4.49
2018-05-03T17:56:05.134Z,4.03
2018-05-03T18:02:00.056Z,3.94
2018-05-03T18:07:55.078Z,3.91
2018-05-03T18:13:50.077Z,2.62
2018-05-03T18:19:45.074Z,3.33
2018-05-03T18:25:40.065Z,3.34
2018-05-03T18:31:35.104Z,3.4
2018-05-03T18:37:30.099Z,5.27
2018-05-03T18:43:25.107Z,4.01
2018-05-03T18:49:20.159Z,3.78
2018-05-03T18:55:15.133Z,4.02
2018-05-03T19:01:10.133Z,5.62
2018-05-03T19:07:05.120Z,3.81
2018-05-03T19:13:00.107Z,3.8
2018-05-03T19:18:55.098Z,3.68
2018-05-03T19:24:50.131Z,4.32
2018-05-03T19:30:45.134Z,3.8
2018-05-03T19:36:40.146Z,3.32
2018-05-03T19:42:35.132Z,3.18
2018-05-03T19:48:30.121Z,3.54
2018-05-03T19:54:25.135Z,4.5
2018-05-03T20:00:20.178Z,3.74
2018-05-03T20:06:15.190Z,4.36
2018-05-03T20:12:10.178Z,4.53
2018-05-03T20:18:05.143Z,3.89
2018-05-03T20:24:00.167Z,4.33
2018-05-03T20:29:55.165Z,4.16
2018-05-03T20:35:50.197Z,4
2018-05-03T20:41:45.182Z,4.82
2018-05-03T20:47:40.199Z,3.96
2018-05-03T20:53:35.218Z,4.47
2018-05-03T20:59:30.191Z,5.05
2018-05-03T21:05:25.207Z,5.19
2018-05-03T21:11:20.205Z,3.84
2018-05-03T21:17:15.178Z,5.27
2018-05-03T21:23:10.211Z,4.96
2018-05-03T21:29:05.194Z,4.37
2018-05-03T21:35:00.200Z,4.47
2018-05-03T21:40:55.230Z,4.84
2018-05-03T21:46:50.217Z,4.27
2018-05-03T21:52:45.233Z,3.91
2018-05-03T21:58:40.224Z,4.24
2018-05-03T22:04:35.232Z,3.2
2018-05-03T22:10:30.240Z,4.06
2018-05-03T22:16:25.218Z,3.99
2018-05-03T22:22:20.335Z,4.05
2018-05-03T22:28:15.226Z,3.48
2018-05-03T22:34:10.244Z,2.96
2018-05-03T22:40:05.260Z,2.99
2018-05-03T22:46:00.257Z,2.83
2018-05-03T22:51:55.252Z,2.62
2018-05-03T22:57:50.254Z,2.04
2018-05-03T23:03:45.264Z,3.04
2018-05-03T23:09:40.260Z,2.82
2018-05-03T23:15:35.298Z,2.16
2018-05-03T23:21:30.274Z,2.56
2018-05-03T23:27:25.297Z,2.04
2018-05-03T23:33:20.273Z,2.42
2018-05-03T23:39:15.265Z,1.44
2018-05-03T23:45:10.336Z,1.3
2018-05-03T23:51:05.280Z,1.28
2018-05-03T23:57:00.263Z,1.43
